Carnival Liberty — HPYE — position and weather

sailwx.info

Track history (hours):
 
Tides and Currents Weather Stations Pressure Air Temp Water Temp Dewpoint Dewpoint Depression Visibility Wind Speed Wind Dir Waves Ship Positions

Carnival Liberty

Last reported at 2020-Apr-06 15:30 UTC. Time now 2020-Apr-06 17:09 UTC.
Position N 28°21' W 080°30'.

Type: Ship. MMSI: 371083000.

Date/timePositionNaut miles runAvg speedWind from/ knotsBaromVisibWave heightAir tempDewpointWater temp
2020-Apr-06 15:30N 28°21' W 080°30'1 0.5
2020-Apr-06 13:56N 28°21' W 080°31'0 0.0
2020-Apr-06 12:00N 28°21' W 080°31'3210.6
2020-Apr-06 12:00N 28°18' W 080°30'93 3.9 150 / 151021.010.8 22.017.524.0
2020-Apr-05 12:00N 27°06' W 079°24'95 2.7 180 / 151017.010.8 24.021.124.0
2020-Apr-04 01:00N 28°21' W 080°29'8 3.3
2020-Apr-03 22:29N 28°25' W 080°38'0 0.0
2020-Apr-03 21:59N 28°25' W 080°38'0 0.0
2020-Apr-03 21:29N 28°25' W 080°38'0 0.0
2020-Apr-03 20:29N 28°25' W 080°38'0 0.0
2020-Apr-03 19:29N 28°25' W 080°38'0 0.0
2020-Apr-03 16:29N 28°25' W 080°38'0 0.0
2020-Apr-03 15:59N 28°25' W 080°38'0 0.0
2020-Apr-03 15:23N 28°25' W 080°38'0 0.0
2020-Apr-03 12:59N 28°25' W 080°38'0 0.0
2020-Apr-03 10:59N 28°25' W 080°38'0 0.0
2020-Apr-03 09:59N 28°25' W 080°38'0 0.0
2020-Apr-03 07:59N 28°25' W 080°38'0 0.0
2020-Apr-03 07:29N 28°25' W 080°38'0 0.0
2020-Apr-03 05:59N 28°25' W 080°38'0 0.0
2020-Apr-03 05:29N 28°25' W 080°38'0 0.0
2020-Apr-03 04:59N 28°25' W 080°38'0 0.0
2020-Apr-03 03:59N 28°25' W 080°38'0 0.0
2020-Apr-03 03:29N 28°25' W 080°38'0 0.0
2020-Apr-03 02:29N 28°25' W 080°38'2 0.7
2020-Apr-03 00:00N 28°24' W 080°36'2 0.7 050 / 51018.010.8 20.013.524.0
2020-Apr-02 21:29N 28°25' W 080°38'0 0.0
2020-Apr-02 20:59N 28°25' W 080°38'0 0.0
2020-Apr-02 19:29N 28°25' W 080°38'0 0.0
2020-Apr-02 18:59N 28°25' W 080°38'0 0.0
2020-Apr-02 18:29N 28°25' W 080°38'0 0.0
2020-Apr-02 15:29N 28°25' W 080°38'0 0.0
2020-Apr-02 13:29N 28°25' W 080°38'0 0.0
2020-Apr-02 11:59N 28°25' W 080°38'0 0.0
2020-Apr-02 10:59N 28°25' W 080°38'0 0.0
2020-Apr-02 10:29N 28°25' W 080°38'0 0.0
2020-Apr-02 09:29N 28°25' W 080°38'0 0.0
2020-Apr-02 07:59N 28°25' W 080°38'0 0.0
2020-Apr-02 07:29N 28°25' W 080°38'0 0.0
2020-Apr-02 05:29N 28°25' W 080°38'0 0.0
2020-Apr-02 02:29N 28°25' W 080°38'0 0.0
2020-Apr-02 01:59N 28°25' W 080°38'0 0.0
2020-Apr-01 22:59N 28°25' W 080°38'0 0.0
2020-Apr-01 22:29N 28°25' W 080°38'0 0.0
2020-Apr-01 21:29N 28°25' W 080°38'0 0.0
2020-Apr-01 20:59N 28°25' W 080°38'0 0.0
2020-Apr-01 18:29N 28°25' W 080°38'0 0.0
2020-Apr-01 17:59N 28°25' W 080°38'0 0.0
2020-Apr-01 16:59N 28°25' W 080°38'0 0.0
2020-Apr-01 16:29N 28°25' W 080°38'0 0.0
2020-Apr-01 10:29N 28°25' W 080°38'0 0.0
2020-Apr-01 07:59N 28°25' W 080°38'0 0.0
2020-Apr-01 07:26N 28°25' W 080°38'0 0.0
2020-Mar-31 21:59N 28°25' W 080°38'0 0.0
2020-Mar-31 20:59N 28°25' W 080°38'0 0.0
2020-Mar-31 20:29N 28°25' W 080°38'0 0.0
2020-Mar-31 17:59N 28°25' W 080°38'0 0.0
2020-Mar-31 16:29N 28°25' W 080°38'0 0.0
2020-Mar-31 15:59N 28°25' W 080°38'0 0.0
2020-Mar-31 11:29N 28°25' W 080°38'0 0.0
2020-Mar-31 10:59N 28°25' W 080°38'0 0.0
2020-Mar-31 09:59N 28°25' W 080°38'0 0.0
2020-Mar-31 09:29N 28°25' W 080°38'0 0.0
2020-Mar-31 08:23N 28°25' W 080°38'0 0.0
2020-Mar-31 07:29N 28°25' W 080°38'0 0.0
2020-Mar-31 06:29N 28°25' W 080°38'0 0.0
2020-Mar-31 04:59N 28°25' W 080°38'0 0.0
2020-Mar-31 04:29N 28°25' W 080°38'0 0.0
2020-Mar-31 03:29N 28°25' W 080°38'0 0.0
2020-Mar-31 00:59N 28°25' W 080°38'0 0.0
2020-Mar-30 23:26N 28°25' W 080°38'0 0.0
2020-Mar-30 21:29N 28°25' W 080°38'0 0.0
2020-Mar-29 12:54N 28°25' W 080°38'1 2.0
2020-Mar-29 12:30N 28°25' W 080°37'9 9.1
2020-Mar-29 11:30N 28°20' W 080°28'24 9.6
2020-Mar-29 08:59N 28°07' W 080°05'42 7.7
2020-Mar-29 03:30N 27°44' W 079°25'6 6.5
2020-Mar-29 02:30N 27°44' W 079°18'11 4.2
2020-Mar-29 00:00N 27°49' W 079°28'2 3.2
2020-Mar-28 23:29N 27°48' W 079°27'8 3.2
2020-Mar-28 21:00N 27°40' W 079°25'5 2.8
2020-Mar-28 19:17N 27°35' W 079°23'9 2.4
2020-Mar-28 15:30N 27°27' W 079°19'17 5.7
2020-Mar-28 12:29N 27°24' W 079°38'4 8.3
2020-Mar-28 12:00N 27°28' W 079°38'4 7.8
2020-Mar-28 11:30N 27°32' W 079°37'24 8.0
2020-Mar-28 08:27N 27°56' W 079°31'59 5.9
2020-Mar-27 22:28N 28°21' W 080°32'0 0.0
2020-Mar-27 21:28N 28°21' W 080°31'0 0.0
2020-Mar-27 16:58N 28°21' W 080°31'0 0.0
2020-Mar-27 16:28N 28°21' W 080°31'0 0.0
2020-Mar-27 15:58N 28°21' W 080°31'  
Track history (hours):
 
Tides and Currents Weather Stations Pressure Air Temp Water Temp Dewpoint Dewpoint Depression Visibility Wind Speed Wind Dir Waves Ship Positions

Carnival Liberty

Last reported at 2020-Apr-06 15:30 UTC. Time now 2020-Apr-06 17:09 UTC.
Position N 28°21' W 080°30'.

Type: Ship. MMSI: 371083000.

Date/timePositionNaut miles runAvg speedWind from/ knotsBaromVisibWave heightAir tempDewpointWater temp
2020-Apr-06 15:30N 28°21' W 080°30'1 0.5
2020-Apr-06 13:56N 28°21' W 080°31'0 0.0
2020-Apr-06 12:00N 28°21' W 080°31'3210.6
2020-Apr-06 12:00N 28°18' W 080°30'93 3.9 150 / 151021.010.8 22.017.524.0
2020-Apr-05 12:00N 27°06' W 079°24'95 2.7 180 / 151017.010.8 24.021.124.0
2020-Apr-04 01:00N 28°21' W 080°29'8 3.3
2020-Apr-03 22:29N 28°25' W 080°38'0 0.0
2020-Apr-03 21:59N 28°25' W 080°38'0 0.0
2020-Apr-03 21:29N 28°25' W 080°38'0 0.0
2020-Apr-03 20:29N 28°25' W 080°38'0 0.0
2020-Apr-03 19:29N 28°25' W 080°38'0 0.0
2020-Apr-03 16:29N 28°25' W 080°38'0 0.0
2020-Apr-03 15:59N 28°25' W 080°38'0 0.0
2020-Apr-03 15:23N 28°25' W 080°38'0 0.0
2020-Apr-03 12:59N 28°25' W 080°38'0 0.0
2020-Apr-03 10:59N 28°25' W 080°38'0 0.0
2020-Apr-03 09:59N 28°25' W 080°38'0 0.0
2020-Apr-03 07:59N 28°25' W 080°38'0 0.0
2020-Apr-03 07:29N 28°25' W 080°38'0 0.0
2020-Apr-03 05:59N 28°25' W 080°38'0 0.0
2020-Apr-03 05:29N 28°25' W 080°38'0 0.0
2020-Apr-03 04:59N 28°25' W 080°38'0 0.0
2020-Apr-03 03:59N 28°25' W 080°38'0 0.0
2020-Apr-03 03:29N 28°25' W 080°38'0 0.0
2020-Apr-03 02:29N 28°25' W 080°38'2 0.7
2020-Apr-03 00:00N 28°24' W 080°36'2 0.7 050 / 51018.010.8 20.013.524.0
2020-Apr-02 21:29N 28°25' W 080°38'0 0.0
2020-Apr-02 20:59N 28°25' W 080°38'0 0.0
2020-Apr-02 19:29N 28°25' W 080°38'0 0.0
2020-Apr-02 18:59N 28°25' W 080°38'0 0.0
2020-Apr-02 18:29N 28°25' W 080°38'0 0.0
2020-Apr-02 15:29N 28°25' W 080°38'0 0.0
2020-Apr-02 13:29N 28°25' W 080°38'0 0.0
2020-Apr-02 11:59N 28°25' W 080°38'0 0.0
2020-Apr-02 10:59N 28°25' W 080°38'0 0.0
2020-Apr-02 10:29N 28°25' W 080°38'0 0.0
2020-Apr-02 09:29N 28°25' W 080°38'0 0.0
2020-Apr-02 07:59N 28°25' W 080°38'0 0.0
2020-Apr-02 07:29N 28°25' W 080°38'0 0.0
2020-Apr-02 05:29N 28°25' W 080°38'0 0.0
2020-Apr-02 02:29N 28°25' W 080°38'0 0.0
2020-Apr-02 01:59N 28°25' W 080°38'0 0.0
2020-Apr-01 22:59N 28°25' W 080°38'0 0.0
2020-Apr-01 22:29N 28°25' W 080°38'0 0.0
2020-Apr-01 21:29N 28°25' W 080°38'0 0.0
2020-Apr-01 20:59N 28°25' W 080°38'0 0.0
2020-Apr-01 18:29N 28°25' W 080°38'0 0.0
2020-Apr-01 17:59N 28°25' W 080°38'0 0.0
2020-Apr-01 16:59N 28°25' W 080°38'0 0.0
2020-Apr-01 16:29N 28°25' W 080°38'0 0.0
2020-Apr-01 10:29N 28°25' W 080°38'0 0.0
2020-Apr-01 07:59N 28°25' W 080°38'0 0.0
2020-Apr-01 07:26N 28°25' W 080°38'0 0.0
2020-Mar-31 21:59N 28°25' W 080°38'0 0.0
2020-Mar-31 20:59N 28°25' W 080°38'0 0.0
2020-Mar-31 20:29N 28°25' W 080°38'0 0.0
2020-Mar-31 17:59N 28°25' W 080°38'0 0.0
2020-Mar-31 16:29N 28°25' W 080°38'0 0.0
2020-Mar-31 15:59N 28°25' W 080°38'0 0.0
2020-Mar-31 11:29N 28°25' W 080°38'0 0.0
2020-Mar-31 10:59N 28°25' W 080°38'0 0.0
2020-Mar-31 09:59N 28°25' W 080°38'0 0.0
2020-Mar-31 09:29N 28°25' W 080°38'0 0.0
2020-Mar-31 08:23N 28°25' W 080°38'0 0.0
2020-Mar-31 07:29N 28°25' W 080°38'0 0.0
2020-Mar-31 06:29N 28°25' W 080°38'0 0.0
2020-Mar-31 04:59N 28°25' W 080°38'0 0.0
2020-Mar-31 04:29N 28°25' W 080°38'0 0.0
2020-Mar-31 03:29N 28°25' W 080°38'0 0.0
2020-Mar-31 00:59N 28°25' W 080°38'0 0.0
2020-Mar-30 23:26N 28°25' W 080°38'0 0.0
2020-Mar-30 21:29N 28°25' W 080°38'0 0.0
2020-Mar-29 12:54N 28°25' W 080°38'1 2.0
2020-Mar-29 12:30N 28°25' W 080°37'9 9.1
2020-Mar-29 11:30N 28°20' W 080°28'24 9.6
2020-Mar-29 08:59N 28°07' W 080°05'42 7.7
2020-Mar-29 03:30N 27°44' W 079°25'6 6.5
2020-Mar-29 02:30N 27°44' W 079°18'11 4.2
2020-Mar-29 00:00N 27°49' W 079°28'2 3.2
2020-Mar-28 23:29N 27°48' W 079°27'8 3.2
2020-Mar-28 21:00N 27°40' W 079°25'5 2.8
2020-Mar-28 19:17N 27°35' W 079°23'9 2.4
2020-Mar-28 15:30N 27°27' W 079°19'17 5.7
2020-Mar-28 12:29N 27°24' W 079°38'4 8.3
2020-Mar-28 12:00N 27°28' W 079°38'4 7.8
2020-Mar-28 11:30N 27°32' W 079°37'24 8.0
2020-Mar-28 08:27N 27°56' W 079°31'59 5.9
2020-Mar-27 22:28N 28°21' W 080°32'0 0.0
2020-Mar-27 21:28N 28°21' W 080°31'0 0.0
2020-Mar-27 16:58N 28°21' W 080°31'0 0.0
2020-Mar-27 16:28N 28°21' W 080°31'0 0.0
2020-Mar-27 15:58N 28°21' W 080°31'  

Dump ship's entire track history